createdAt,value
2022-12-31T00:00:37.926Z,54.04
2022-12-31T00:01:38.062Z,54.05
2022-12-31T00:02:37.979Z,53.69
2022-12-31T00:03:37.882Z,54.55
2022-12-31T00:04:37.853Z,52.73
2022-12-31T00:05:37.858Z,52.06
2022-12-31T00:06:37.906Z,53.68
2022-12-31T00:09:24.313Z,54.84
2022-12-31T00:10:24.304Z,53.44
2022-12-31T00:11:24.319Z,53.61
2022-12-31T00:12:24.288Z,53.48
2022-12-31T00:13:24.289Z,55.19
2022-12-31T00:14:24.277Z,53.96
2022-12-31T00:15:24.329Z,53.83
2022-12-31T00:16:24.326Z,52.31
2022-12-31T00:17:24.335Z,51.37
2022-12-31T00:18:24.256Z,55.11
2022-12-31T00:19:24.239Z,54.74
2022-12-31T00:20:24.310Z,57.55
2022-12-31T00:21:24.461Z,55.46
2022-12-31T00:22:24.260Z,55.07
2022-12-31T00:23:24.302Z,53.27
2022-12-31T00:24:24.197Z,52.89
2022-12-31T00:25:24.274Z,52.03
2022-12-31T00:26:24.212Z,51.66
2022-12-31T00:27:24.229Z,53.36
2022-12-31T00:28:24.172Z,51.28
2022-12-31T00:29:24.232Z,52.78
2022-12-31T00:30:24.228Z,54.47
2022-12-31T00:31:24.232Z,52.39
2022-12-31T00:32:24.169Z,51.64
2022-12-31T00:33:24.334Z,53.66
2022-12-31T00:34:24.128Z,51.33
2022-12-31T00:35:24.165Z,53.77
2022-12-31T00:36:24.154Z,54.58
2022-12-31T00:37:24.143Z,53.98
2022-12-31T00:38:24.120Z,51.58
2022-12-31T00:39:24.109Z,53.13
2022-12-31T00:40:24.099Z,52.82
2022-12-31T00:41:24.200Z,52.54
2022-12-31T00:42:24.111Z,52.01
2022-12-31T00:43:24.094Z,55.68
2022-12-31T00:44:24.086Z,54.95
2022-12-31T00:45:24.068Z,52.70
2022-12-31T00:46:24.091Z,50.84
2022-12-31T00:47:24.098Z,53.81
2022-12-31T00:48:24.028Z,52.69
2022-12-31T00:49:24.082Z,54.62
2022-12-31T00:50:24.046Z,53.79
2022-12-31T00:51:24.022Z,52.10
2022-12-31T00:52:24.016Z,51.96
2022-12-31T00:53:24.098Z,52.11
2022-12-31T00:54:23.994Z,54.89
2022-12-31T00:55:24.006Z,54.47
2022-12-31T00:56:23.982Z,51.89
2022-12-31T00:57:23.990Z,56.04
2022-12-31T00:58:23.983Z,53.18
2022-12-31T00:59:23.970Z,54.37
2022-12-31T01:00:24.000Z,52.05
2022-12-31T01:01:24.216Z,50.96
2022-12-31T01:02:24.176Z,53.13
2022-12-31T01:03:23.965Z,54.44
2022-12-31T01:04:23.947Z,53.36
2022-12-31T01:05:23.953Z,51.43
2022-12-31T01:06:23.911Z,50.11
2022-12-31T01:07:23.924Z,52.31
2022-12-31T01:08:23.907Z,51.49
2022-12-31T01:09:23.930Z,51.34
2022-12-31T01:10:23.895Z,52.22
2022-12-31T01:11:23.886Z,52.22
2022-12-31T01:12:23.884Z,52.46
2022-12-31T01:13:23.889Z,52.92
2022-12-31T01:14:23.868Z,49.12
2022-12-31T01:15:23.948Z,49.89
2022-12-31T01:16:23.859Z,51.95
2022-12-31T01:17:23.857Z,51.15
2022-12-31T01:18:23.844Z,52.47
2022-12-31T01:19:23.839Z,53.03
2022-12-31T01:20:23.831Z,53.37
2022-12-31T01:21:23.836Z,52.01
2022-12-31T01:22:23.802Z,52.20
2022-12-31T01:23:23.812Z,51.49
2022-12-31T01:24:23.820Z,50.69
2022-12-31T01:25:23.796Z,51.83
2022-12-31T01:26:23.848Z,52.02
2022-12-31T01:27:23.789Z,53.98
2022-12-31T01:28:23.782Z,52.66
2022-12-31T01:29:23.764Z,52.14
2022-12-31T01:30:23.776Z,51.41
2022-12-31T01:31:23.881Z,56.65
2022-12-31T01:32:23.750Z,54.75
2022-12-31T01:33:23.745Z,50.05
2022-12-31T01:34:23.779Z,53.06
2022-12-31T01:35:23.815Z,52.27
2022-12-31T01:36:26.223Z,53.25
2022-12-31T01:37:23.739Z,54.97
2022-12-31T01:38:23.705Z,52.41
2022-12-31T01:39:23.691Z,51.97
2022-12-31T01:40:23.688Z,54.35
2022-12-31T01:41:23.714Z,52.73
2022-12-31T01:42:23.666Z,49.88
2022-12-31T01:43:23.678Z,52.05
2022-12-31T01:44:23.661Z,50.19
2022-12-31T01:45:23.674Z,52.15
2022-12-31T01:46:23.730Z,51.46
2022-12-31T01:47:23.639Z,49.16
2022-12-31T01:48:23.646Z,51.92
2022-12-31T01:49:23.659Z,51.24
2022-12-31T01:50:23.631Z,50.96
2022-12-31T01:51:23.636Z,49.57
2022-12-31T01:52:23.615Z,50.26
2022-12-31T01:53:23.643Z,51.34
2022-12-31T01:54:23.589Z,49.80
2022-12-31T01:55:23.649Z,49.06
2022-12-31T01:56:23.622Z,48.60
2022-12-31T01:57:23.591Z,49.69
2022-12-31T01:58:23.588Z,47.86
2022-12-31T01:59:23.565Z,50.45
2022-12-31T02:00:23.691Z,47.77
2022-12-31T02:01:23.660Z,50.02
2022-12-31T02:02:23.724Z,50.35
2022-12-31T02:03:23.628Z,49.39
2022-12-31T02:04:23.550Z,51.36
2022-12-31T02:05:23.520Z,53.38
2022-12-31T02:06:23.513Z,53.75
2022-12-31T02:07:23.552Z,53.99
2022-12-31T02:08:23.496Z,53.07
2022-12-31T02:09:23.540Z,54.08
2022-12-31T02:10:23.495Z,51.19
2022-12-31T02:11:23.491Z,51.76
2022-12-31T02:12:23.485Z,51.84
2022-12-31T02:13:23.526Z,51.63
2022-12-31T02:14:23.489Z,51.81
2022-12-31T02:15:23.545Z,52.75
2022-12-31T02:16:23.529Z,53.48
2022-12-31T02:17:23.469Z,53.09
2022-12-31T02:18:23.480Z,60.35
2022-12-31T02:19:23.479Z,52.89
2022-12-31T02:20:23.421Z,51.63
2022-12-31T02:21:23.439Z,53.68
2022-12-31T02:22:23.449Z,51.19
2022-12-31T02:23:23.397Z,52.85
2022-12-31T02:24:23.427Z,52.13
2022-12-31T02:25:23.461Z,54.36
2022-12-31T02:26:23.437Z,54.87
2022-12-31T02:27:23.390Z,51.97
2022-12-31T02:28:23.387Z,54.12
2022-12-31T02:29:23.434Z,52.72
2022-12-31T02:30:23.411Z,55.61
2022-12-31T02:31:23.523Z,55.30
2022-12-31T02:32:23.401Z,51.14
2022-12-31T02:33:23.337Z,51.63
2022-12-31T02:34:23.406Z,55.21
2022-12-31T02:35:23.350Z,54.78
2022-12-31T02:36:23.350Z,54.91
2022-12-31T02:37:23.348Z,52.29
2022-12-31T02:38:23.337Z,52.90
2022-12-31T02:39:23.351Z,49.99
2022-12-31T02:40:23.346Z,52.45
2022-12-31T02:41:23.344Z,52.28
2022-12-31T02:42:23.399Z,51.95
2022-12-31T02:43:23.377Z,52.96
2022-12-31T02:44:23.349Z,51.70
2022-12-31T02:45:23.293Z,54.70
2022-12-31T02:46:23.361Z,53.50
2022-12-31T02:47:23.331Z,49.87
2022-12-31T02:48:23.317Z,54.25
2022-12-31T02:49:23.325Z,52.52
2022-12-31T02:50:23.325Z,50.43
2022-12-31T02:51:23.357Z,53.83
2022-12-31T02:52:23.242Z,51.02
2022-12-31T02:53:23.289Z,53.33
2022-12-31T02:54:23.267Z,52.58
2022-12-31T02:55:23.265Z,51.42
2022-12-31T02:56:23.257Z,54.58
2022-12-31T02:57:23.188Z,52.92
2022-12-31T02:58:23.172Z,55.73
2022-12-31T02:59:23.166Z,53.11
2022-12-31T03:00:23.194Z,51.51
2022-12-31T03:01:23.327Z,52.78
2022-12-31T03:02:23.317Z,52.99
2022-12-31T03:03:23.211Z,52.41
2022-12-31T03:04:23.259Z,54.07
2022-12-31T03:05:23.120Z,52.38
2022-12-31T03:06:23.129Z,52.34
2022-12-31T03:07:23.120Z,52.51
2022-12-31T03:08:23.098Z,52.86
2022-12-31T03:09:23.088Z,53.55
2022-12-31T03:10:23.082Z,57.36
2022-12-31T03:11:23.075Z,65.63
2022-12-31T03:12:23.070Z,55.93
2022-12-31T03:13:23.096Z,56.11
2022-12-31T03:14:23.056Z,56.31
2022-12-31T03:15:23.065Z,61.00
2022-12-31T03:16:23.079Z,56.47
2022-12-31T03:17:23.044Z,56.36
2022-12-31T03:18:23.061Z,60.00
2022-12-31T03:19:23.018Z,55.96
2022-12-31T03:20:23.022Z,56.98
2022-12-31T03:21:23.027Z,60.66
2022-12-31T03:22:23.069Z,58.07
2022-12-31T03:23:23.013Z,56.52
2022-12-31T03:24:22.983Z,60.30
2022-12-31T03:25:23.073Z,56.31
2022-12-31T03:26:22.991Z,59.38
2022-12-31T03:27:23.054Z,54.42
2022-12-31T03:28:22.984Z,57.75
2022-12-31T03:29:23.036Z,56.42
2022-12-31T03:30:22.935Z,56.89
2022-12-31T03:31:23.027Z,53.62
2022-12-31T03:32:22.921Z,59.65
2022-12-31T03:33:22.925Z,59.08
2022-12-31T03:34:22.937Z,55.86
2022-12-31T03:35:22.913Z,58.25
2022-12-31T03:36:22.943Z,59.31
2022-12-31T03:37:22.911Z,55.57
2022-12-31T03:38:22.899Z,56.69
2022-12-31T03:39:22.899Z,56.26
2022-12-31T03:40:22.897Z,57.58
2022-12-31T03:41:22.898Z,56.96
2022-12-31T03:42:22.871Z,59.85
2022-12-31T03:43:22.924Z,55.54
2022-12-31T03:44:22.848Z,57.76
2022-12-31T03:45:22.870Z,56.44
2022-12-31T03:46:22.913Z,57.01
2022-12-31T03:47:22.837Z,56.73
2022-12-31T03:48:22.880Z,57.26
2022-12-31T03:49:22.840Z,55.35
2022-12-31T03:50:22.807Z,58.80
2022-12-31T03:51:22.827Z,53.92
2022-12-31T03:52:22.821Z,52.94
2022-12-31T03:53:22.804Z,55.25
2022-12-31T03:54:22.796Z,56.44
2022-12-31T03:55:22.816Z,54.68
2022-12-31T03:56:22.779Z,53.26
2022-12-31T03:57:23.057Z,53.79
2022-12-31T03:58:22.776Z,55.13
2022-12-31T03:59:22.760Z,54.73
2022-12-31T04:00:22.767Z,54.82
2022-12-31T04:01:22.916Z,54.82
2022-12-31T04:02:28.276Z,56.21
2022-12-31T04:03:23.823Z,54.69
2022-12-31T04:04:22.718Z,57.19
2022-12-31T04:05:22.721Z,54.46
2022-12-31T04:06:22.720Z,58.20
2022-12-31T04:07:22.719Z,55.83
2022-12-31T04:08:22.731Z,59.89
2022-12-31T04:09:22.797Z,55.25
2022-12-31T04:10:22.673Z,55.71
2022-12-31T04:11:22.678Z,53.94
2022-12-31T04:12:22.672Z,56.65
2022-12-31T04:13:22.685Z,56.31
2022-12-31T04:14:22.657Z,53.66
2022-12-31T04:15:22.665Z,54.45
2022-12-31T04:16:22.702Z,52.52
2022-12-31T04:17:22.660Z,55.19
2022-12-31T04:18:22.632Z,53.23
2022-12-31T04:19:22.671Z,52.48
2022-12-31T04:20:22.633Z,56.39
2022-12-31T04:21:22.621Z,58.16
2022-12-31T04:22:22.615Z,53.65
2022-12-31T04:23:22.611Z,58.06
2022-12-31T04:24:22.576Z,52.74
2022-12-31T04:25:22.627Z,53.30
2022-12-31T04:26:22.577Z,56.82
2022-12-31T04:27:22.562Z,52.71
2022-12-31T04:28:22.578Z,52.67
2022-12-31T04:29:22.564Z,54.99
2022-12-31T04:30:22.536Z,57.41
2022-12-31T04:31:22.589Z,57.60
2022-12-31T04:32:22.524Z,55.86
2022-12-31T04:33:22.549Z,58.83
2022-12-31T04:34:22.542Z,53.96
2022-12-31T04:35:22.580Z,54.55
2022-12-31T04:36:22.509Z,56.80
2022-12-31T04:37:22.510Z,56.19
2022-12-31T04:38:22.487Z,59.02
2022-12-31T04:39:22.520Z,56.97
2022-12-31T04:40:22.497Z,55.84
2022-12-31T04:41:22.501Z,58.05
2022-12-31T04:42:22.487Z,56.61
2022-12-31T04:43:22.481Z,55.06
2022-12-31T04:44:22.443Z,53.58
2022-12-31T04:45:22.461Z,53.50
2022-12-31T04:46:22.540Z,52.38
2022-12-31T04:47:23.993Z,56.33
2022-12-31T04:48:22.479Z,55.28
2022-12-31T04:49:22.479Z,55.50
2022-12-31T04:50:22.440Z,60.06
2022-12-31T04:51:22.424Z,53.60
2022-12-31T04:52:22.404Z,59.70
2022-12-31T04:53:22.400Z,57.92
2022-12-31T04:54:22.390Z,56.26
2022-12-31T04:55:22.377Z,55.38
2022-12-31T04:56:22.391Z,53.78
2022-12-31T04:57:22.402Z,55.04
2022-12-31T04:58:22.370Z,55.15
2022-12-31T04:59:22.358Z,54.05
2022-12-31T05:00:22.357Z,55.17
2022-12-31T05:01:22.444Z,56.33
2022-12-31T05:02:22.651Z,55.53
2022-12-31T05:03:22.387Z,56.49
2022-12-31T05:04:22.307Z,54.36
2022-12-31T05:05:22.333Z,57.57
2022-12-31T05:06:22.339Z,57.67
2022-12-31T05:07:22.290Z,55.14
2022-12-31T05:08:22.325Z,53.67
2022-12-31T05:09:22.334Z,59.36
2022-12-31T05:10:22.268Z,58.48
2022-12-31T05:11:22.281Z,53.82
2022-12-31T05:12:22.262Z,59.74
2022-12-31T05:13:22.494Z,55.27
2022-12-31T05:14:22.247Z,55.94
2022-12-31T05:15:22.286Z,53.55
2022-12-31T05:16:22.336Z,55.32
2022-12-31T05:17:22.239Z,55.91
2022-12-31T05:18:22.223Z,53.67
2022-12-31T05:19:22.221Z,58.02
2022-12-31T05:20:22.215Z,58.11
2022-12-31T05:21:22.502Z,56.61
2022-12-31T05:22:22.209Z,56.15
2022-12-31T05:23:22.198Z,55.90
2022-12-31T05:24:22.169Z,55.31
2022-12-31T05:25:22.180Z,60.01
2022-12-31T05:26:22.188Z,56.34
2022-12-31T05:27:22.157Z,56.11
2022-12-31T05:28:22.147Z,56.89
2022-12-31T05:29:22.163Z,57.81
2022-12-31T05:30:22.133Z,56.17
2022-12-31T05:31:22.165Z,59.08
2022-12-31T05:32:22.124Z,56.97
2022-12-31T05:33:22.119Z,58.14
2022-12-31T05:34:22.117Z,53.92
2022-12-31T05:35:22.105Z,58.39
2022-12-31T05:36:22.118Z,55.49
2022-12-31T05:37:22.133Z,58.52
2022-12-31T05:38:22.079Z,58.29
2022-12-31T05:39:22.093Z,59.87
2022-12-31T05:40:22.089Z,58.13
2022-12-31T05:41:22.072Z,58.71
2022-12-31T05:42:22.065Z,57.07
2022-12-31T05:43:22.055Z,56.39
2022-12-31T05:44:22.046Z,55.36
2022-12-31T05:45:28.407Z,55.74
2022-12-31T05:46:23.074Z,58.20
2022-12-31T05:47:22.045Z,52.46
2022-12-31T05:48:22.029Z,55.84
2022-12-31T05:49:22.031Z,55.94
2022-12-31T05:50:21.991Z,52.76
2022-12-31T05:51:22.013Z,57.73
2022-12-31T05:52:21.982Z,55.84
2022-12-31T05:53:22.278Z,54.21
2022-12-31T05:54:21.979Z,56.23
2022-12-31T05:55:21.973Z,57.74
2022-12-31T05:56:21.967Z,54.78
2022-12-31T05:57:21.984Z,57.76
2022-12-31T05:58:21.953Z,53.68
2022-12-31T05:59:21.978Z,57.27
2022-12-31T06:00:21.932Z,57.52
2022-12-31T06:01:22.063Z,57.80
2022-12-31T06:02:22.013Z,57.94
2022-12-31T06:03:22.094Z,56.45
2022-12-31T06:04:21.916Z,56.35
2022-12-31T06:05:26.070Z,55.17
2022-12-31T06:06:21.901Z,53.88
2022-12-31T06:07:21.894Z,55.56
2022-12-31T06:08:21.921Z,54.88
2022-12-31T06:09:21.908Z,56.72
2022-12-31T06:10:21.899Z,54.56
2022-12-31T06:11:21.874Z,53.60
2022-12-31T06:12:21.876Z,58.89
2022-12-31T06:13:21.890Z,56.68
2022-12-31T06:14:21.853Z,57.17
2022-12-31T06:15:21.846Z,58.54
2022-12-31T06:16:21.882Z,58.31
2022-12-31T06:17:21.821Z,56.93
2022-12-31T06:18:21.829Z,53.25
2022-12-31T06:19:21.824Z,53.69
2022-12-31T06:20:21.825Z,52.89
2022-12-31T06:21:21.805Z,55.02
2022-12-31T06:22:21.850Z,54.05
2022-12-31T06:23:21.775Z,53.32
2022-12-31T06:24:21.774Z,58.64
2022-12-31T06:25:21.801Z,56.98
2022-12-31T06:26:21.762Z,56.81
2022-12-31T06:27:21.771Z,54.86
2022-12-31T06:28:21.773Z,57.14
2022-12-31T06:29:21.739Z,56.85
2022-12-31T06:30:21.932Z,54.38
2022-12-31T06:31:21.792Z,55.49
2022-12-31T06:32:21.737Z,56.54
2022-12-31T06:33:21.726Z,53.30
2022-12-31T06:34:21.696Z,55.16
2022-12-31T06:35:21.713Z,55.37
2022-12-31T06:36:21.719Z,52.13
2022-12-31T06:37:21.700Z,52.87
2022-12-31T06:38:21.688Z,53.53
2022-12-31T06:39:21.729Z,53.74
2022-12-31T06:40:21.662Z,53.86
2022-12-31T06:41:21.695Z,53.50
2022-12-31T06:42:21.655Z,54.95
2022-12-31T06:43:21.662Z,51.81
2022-12-31T06:44:21.643Z,52.96
2022-12-31T06:45:21.873Z,56.56
2022-12-31T06:46:21.675Z,52.69
2022-12-31T06:47:21.638Z,54.97
2022-12-31T06:48:21.636Z,58.02
2022-12-31T06:49:21.659Z,54.52
2022-12-31T06:50:21.604Z,58.34
2022-12-31T06:51:21.592Z,57.41
2022-12-31T06:52:21.572Z,54.74
2022-12-31T06:53:21.597Z,52.24
2022-12-31T06:54:21.558Z,53.76
2022-12-31T06:55:21.579Z,54.63
2022-12-31T06:56:21.561Z,56.84
2022-12-31T06:57:21.589Z,52.71
2022-12-31T06:58:21.567Z,53.35
2022-12-31T06:59:21.539Z,55.48
2022-12-31T07:00:21.516Z,53.66
2022-12-31T07:01:21.661Z,54.47
2022-12-31T07:02:21.603Z,53.59
2022-12-31T07:03:21.563Z,60.40
2022-12-31T07:04:21.500Z,50.97
2022-12-31T07:05:21.555Z,57.02
2022-12-31T07:06:21.479Z,55.19
2022-12-31T07:07:21.560Z,55.67
2022-12-31T07:08:21.488Z,57.11
2022-12-31T07:09:21.472Z,56.79
2022-12-31T07:10:27.258Z,53.71
2022-12-31T07:11:22.461Z,53.10
2022-12-31T07:12:21.507Z,53.59
2022-12-31T07:13:21.491Z,54.10
2022-12-31T07:14:21.424Z,54.75
2022-12-31T07:15:21.436Z,56.42
2022-12-31T07:16:21.506Z,57.39
2022-12-31T07:17:21.420Z,59.51
2022-12-31T07:18:21.410Z,60.85
2022-12-31T07:19:21.400Z,59.03
2022-12-31T07:20:21.405Z,56.91
2022-12-31T07:21:21.431Z,56.47
2022-12-31T07:22:21.397Z,55.10
2022-12-31T07:23:21.404Z,55.75
2022-12-31T07:24:21.356Z,59.71
2022-12-31T07:25:21.372Z,64.90
2022-12-31T07:26:21.358Z,61.98
2022-12-31T07:27:21.373Z,61.33
2022-12-31T07:28:21.347Z,61.50
2022-12-31T07:29:21.367Z,61.28
2022-12-31T07:30:21.335Z,58.21
2022-12-31T07:31:21.350Z,60.37
2022-12-31T07:32:21.313Z,58.31
2022-12-31T07:33:21.319Z,57.59
2022-12-31T07:34:21.301Z,58.43
2022-12-31T07:35:21.355Z,55.62
2022-12-31T07:36:21.302Z,54.12
2022-12-31T07:37:21.296Z,54.11
2022-12-31T07:38:21.280Z,55.89
2022-12-31T07:39:21.268Z,53.84
2022-12-31T07:40:21.269Z,53.62
2022-12-31T07:41:21.271Z,54.19
2022-12-31T07:42:21.325Z,58.56
2022-12-31T07:43:21.255Z,59.41
2022-12-31T07:44:21.235Z,57.78
2022-12-31T07:45:21.250Z,59.49
2022-12-31T07:46:21.255Z,58.26
2022-12-31T07:47:21.215Z,60.99
2022-12-31T07:48:21.199Z,60.05
2022-12-31T07:49:21.239Z,56.42
2022-12-31T07:50:21.181Z,55.66
2022-12-31T07:51:21.193Z,60.09
2022-12-31T07:52:21.258Z,62.69
2022-12-31T07:53:21.167Z,61.81
2022-12-31T07:54:21.145Z,62.35
2022-12-31T07:55:21.177Z,63.28
2022-12-31T07:56:21.152Z,63.47
2022-12-31T07:57:21.140Z,60.27
2022-12-31T07:58:21.134Z,59.82
2022-12-31T07:59:24.468Z,59.44
2022-12-31T08:00:21.103Z,60.42
2022-12-31T08:01:21.378Z,58.72
2022-12-31T08:02:21.187Z,57.43
2022-12-31T08:03:21.150Z,57.13
2022-12-31T08:04:21.088Z,57.78
2022-12-31T08:05:21.085Z,59.65
2022-12-31T08:06:21.125Z,59.52
2022-12-31T08:07:21.065Z,54.59
2022-12-31T08:08:21.052Z,54.57
2022-12-31T08:09:21.116Z,55.38
2022-12-31T08:10:21.114Z,55.45
2022-12-31T08:11:21.058Z,54.49
2022-12-31T08:12:21.044Z,56.11
2022-12-31T08:13:21.039Z,54.51
2022-12-31T08:14:21.007Z,57.02
2022-12-31T08:15:25.453Z,54.00
2022-12-31T08:16:22.083Z,58.13
2022-12-31T08:17:21.026Z,55.23
2022-12-31T08:18:21.012Z,55.00
2022-12-31T08:19:20.992Z,57.09
2022-12-31T08:20:21.063Z,58.31
2022-12-31T08:21:20.989Z,55.78
2022-12-31T08:22:20.955Z,53.97
2022-12-31T08:23:20.974Z,54.39
2022-12-31T08:24:20.964Z,54.79
2022-12-31T08:25:20.971Z,55.52
2022-12-31T08:26:20.936Z,53.76
2022-12-31T08:27:20.944Z,57.62
2022-12-31T08:28:20.931Z,53.73
2022-12-31T08:29:20.913Z,55.41
2022-12-31T08:30:20.990Z,54.30
2022-12-31T08:31:20.949Z,54.08
2022-12-31T08:32:20.891Z,53.68
2022-12-31T08:33:20.928Z,55.66
2022-12-31T08:34:20.883Z,53.02
2022-12-31T08:35:20.931Z,55.95
2022-12-31T08:36:21.621Z,56.83
2022-12-31T08:37:20.864Z,54.69
2022-12-31T08:38:20.882Z,56.48
2022-12-31T08:39:20.844Z,55.87
2022-12-31T08:40:20.833Z,55.90
2022-12-31T08:41:20.874Z,54.22
2022-12-31T08:42:20.826Z,54.98
2022-12-31T08:43:20.840Z,55.11
2022-12-31T08:44:20.875Z,53.97
2022-12-31T08:45:20.819Z,55.17
2022-12-31T08:46:20.884Z,54.28
2022-12-31T08:47:20.800Z,55.94
2022-12-31T08:48:20.797Z,54.45
2022-12-31T08:49:20.854Z,57.50
2022-12-31T08:50:20.765Z,54.60
2022-12-31T08:51:20.785Z,54.33
2022-12-31T08:52:20.765Z,58.06
2022-12-31T08:53:20.769Z,55.34
2022-12-31T08:54:20.753Z,53.94
2022-12-31T08:55:20.768Z,53.22
2022-12-31T08:56:20.743Z,54.57
2022-12-31T08:57:20.749Z,58.01
2022-12-31T08:58:20.773Z,59.17
2022-12-31T08:59:20.741Z,54.86
2022-12-31T09:00:20.712Z,55.28
2022-12-31T09:01:20.831Z,57.14
2022-12-31T09:02:20.730Z,56.23
2022-12-31T09:03:20.711Z,54.48
2022-12-31T09:04:20.715Z,54.80
2022-12-31T09:05:20.702Z,56.35
2022-12-31T09:06:20.676Z,58.59
2022-12-31T09:07:20.674Z,61.16
2022-12-31T09:08:20.717Z,59.22
2022-12-31T09:09:20.637Z,60.23
2022-12-31T09:10:20.659Z,60.30
2022-12-31T09:11:23.172Z,57.16
2022-12-31T09:12:20.619Z,56.15
2022-12-31T09:13:20.627Z,55.32
2022-12-31T09:14:20.624Z,55.82
2022-12-31T09:15:20.603Z,58.77
2022-12-31T09:16:20.635Z,62.29
2022-12-31T09:17:20.595Z,55.38
2022-12-31T09:18:20.574Z,56.38
2022-12-31T09:19:20.605Z,55.80
2022-12-31T09:20:20.574Z,62.40
2022-12-31T09:21:20.589Z,57.80
2022-12-31T09:22:20.582Z,59.61
2022-12-31T09:23:20.549Z,64.96
2022-12-31T09:24:20.542Z,63.99
2022-12-31T09:25:20.645Z,66.20
2022-12-31T09:26:20.564Z,65.07
2022-12-31T09:27:27.199Z,62.89
2022-12-31T09:28:21.533Z,64.61
2022-12-31T09:29:20.507Z,65.74
2022-12-31T09:30:20.526Z,65.23
2022-12-31T09:31:20.553Z,64.16
2022-12-31T09:32:20.496Z,62.96
2022-12-31T09:33:20.488Z,65.00
2022-12-31T09:34:20.500Z,65.70
2022-12-31T09:35:20.533Z,63.54
2022-12-31T09:36:20.463Z,65.01
2022-12-31T09:37:20.574Z,63.07
2022-12-31T09:38:20.461Z,66.44
2022-12-31T09:39:20.422Z,66.77
2022-12-31T09:40:20.491Z,66.59
2022-12-31T09:41:20.411Z,64.11
2022-12-31T09:42:20.428Z,64.05
2022-12-31T09:43:20.405Z,65.47
2022-12-31T09:44:20.400Z,63.26
2022-12-31T09:45:20.436Z,65.68
2022-12-31T09:46:20.412Z,66.24
2022-12-31T09:47:20.404Z,62.90
2022-12-31T09:48:20.382Z,63.76
2022-12-31T09:49:20.355Z,62.30
2022-12-31T09:50:20.454Z,62.68
2022-12-31T09:51:25.314Z,60.93
2022-12-31T09:52:21.361Z,60.73
2022-12-31T09:53:20.375Z,58.82
2022-12-31T09:54:20.355Z,59.45
2022-12-31T09:55:20.320Z,61.17
2022-12-31T09:56:20.333Z,58.85
2022-12-31T09:57:20.310Z,57.93
2022-12-31T09:58:20.321Z,58.44
2022-12-31T09:59:20.308Z,58.40
2022-12-31T10:00:20.308Z,59.33
2022-12-31T10:01:20.435Z,59.05
2022-12-31T10:02:20.765Z,58.70
2022-12-31T10:03:20.361Z,59.72
2022-12-31T10:04:20.314Z,61.81
2022-12-31T10:05:20.270Z,59.93
2022-12-31T10:06:20.255Z,58.24
2022-12-31T10:07:20.237Z,58.18
2022-12-31T10:08:20.258Z,57.54
2022-12-31T10:09:20.397Z,56.66
2022-12-31T10:10:20.260Z,60.11
2022-12-31T10:11:20.229Z,56.29
2022-12-31T10:12:20.219Z,60.55
2022-12-31T10:13:20.218Z,58.33
2022-12-31T10:14:20.204Z,60.04
2022-12-31T10:15:20.264Z,59.40
2022-12-31T10:16:20.278Z,58.30
2022-12-31T10:17:20.187Z,56.03
2022-12-31T10:18:20.187Z,56.40
2022-12-31T10:19:20.157Z,57.30
2022-12-31T10:20:20.170Z,58.00
2022-12-31T10:21:20.174Z,58.73
2022-12-31T10:22:20.156Z,56.55
2022-12-31T10:23:20.144Z,57.96
2022-12-31T10:24:20.161Z,60.11
2022-12-31T10:25:20.159Z,56.81
2022-12-31T10:26:20.193Z,56.38
2022-12-31T10:27:20.104Z,55.96
2022-12-31T10:28:20.115Z,56.19
2022-12-31T10:29:20.101Z,60.77
2022-12-31T10:30:20.356Z,56.26
2022-12-31T10:31:20.190Z,57.33
2022-12-31T10:32:20.083Z,61.02
2022-12-31T10:33:20.058Z,60.08
2022-12-31T10:34:20.091Z,57.32
2022-12-31T10:35:20.057Z,55.35
2022-12-31T10:36:20.045Z,58.41
2022-12-31T10:37:20.061Z,57.47
2022-12-31T10:38:20.049Z,57.43
2022-12-31T10:39:24.314Z,57.78
2022-12-31T10:40:20.034Z,57.07
2022-12-31T10:41:20.086Z,55.26
2022-12-31T10:42:20.052Z,56.36
2022-12-31T10:43:20.013Z,59.73
2022-12-31T10:44:19.988Z,57.23
2022-12-31T10:45:19.989Z,57.14
2022-12-31T10:46:23.151Z,60.92
2022-12-31T10:47:19.974Z,57.42
2022-12-31T10:48:19.981Z,54.79
2022-12-31T10:49:19.972Z,57.62
2022-12-31T10:50:19.940Z,57.95
2022-12-31T10:51:20.017Z,56.65
2022-12-31T10:52:19.941Z,57.68
2022-12-31T10:53:19.945Z,58.90
2022-12-31T10:54:19.929Z,55.48
2022-12-31T10:55:19.937Z,57.06
2022-12-31T10:56:19.897Z,57.64
2022-12-31T10:57:19.946Z,58.26
2022-12-31T10:58:19.882Z,59.34
2022-12-31T10:59:19.934Z,54.62
2022-12-31T11:00:19.875Z,55.67
2022-12-31T11:01:19.988Z,56.66
2022-12-31T11:02:20.144Z,56.58
2022-12-31T11:03:25.158Z,56.40
2022-12-31T11:04:20.836Z,56.04
2022-12-31T11:05:19.867Z,57.33
2022-12-31T11:06:19.833Z,56.92
2022-12-31T11:07:19.840Z,54.95
2022-12-31T11:08:19.819Z,57.11
2022-12-31T11:09:19.836Z,57.00
2022-12-31T11:10:19.791Z,54.60
2022-12-31T11:11:19.870Z,55.07
2022-12-31T11:12:19.803Z,56.41
2022-12-31T11:13:19.808Z,56.01
2022-12-31T11:14:19.779Z,57.34
2022-12-31T11:15:19.799Z,59.48
2022-12-31T11:16:19.849Z,58.35
2022-12-31T11:17:19.765Z,55.28
2022-12-31T11:18:19.770Z,55.07
2022-12-31T11:19:19.787Z,55.27
2022-12-31T11:20:19.743Z,54.35
2022-12-31T11:21:26.201Z,55.45
2022-12-31T11:22:20.717Z,55.92
2022-12-31T11:23:19.712Z,55.26
2022-12-31T11:24:19.719Z,57.38
2022-12-31T11:25:19.705Z,58.07
2022-12-31T11:26:19.697Z,56.14
2022-12-31T11:27:19.720Z,62.64
2022-12-31T11:28:19.697Z,60.18
2022-12-31T11:29:19.714Z,59.97
2022-12-31T11:30:19.659Z,56.25
2022-12-31T11:31:19.780Z,59.10
2022-12-31T11:32:19.664Z,57.69
2022-12-31T11:33:19.661Z,54.77
2022-12-31T11:34:19.652Z,55.87
2022-12-31T11:35:19.663Z,56.19
2022-12-31T11:36:19.622Z,52.91
2022-12-31T11:37:19.618Z,53.69
2022-12-31T11:38:19.621Z,56.25
2022-12-31T11:39:19.621Z,55.27
2022-12-31T11:40:19.587Z,55.36
2022-12-31T11:41:19.605Z,54.19
2022-12-31T11:42:19.608Z,56.19
2022-12-31T11:43:19.570Z,58.00
2022-12-31T11:44:19.627Z,59.08
2022-12-31T11:45:19.592Z,62.21
2022-12-31T11:46:19.610Z,63.82
2022-12-31T11:47:19.591Z,64.23
2022-12-31T11:48:30.312Z,62.68
2022-12-31T11:49:20.625Z,61.55
2022-12-31T11:50:19.523Z,62.02
2022-12-31T11:51:19.599Z,61.67
2022-12-31T11:52:21.593Z,62.68
2022-12-31T11:53:19.506Z,63.89
2022-12-31T11:54:19.646Z,61.81
2022-12-31T11:55:19.521Z,59.43
2022-12-31T11:56:19.478Z,60.16
2022-12-31T11:57:19.505Z,61.24
2022-12-31T11:58:19.464Z,62.61
2022-12-31T11:59:20.022Z,62.28
2022-12-31T12:00:19.471Z,62.07
2022-12-31T12:01:19.573Z,60.53
2022-12-31T12:02:19.507Z,60.35
2022-12-31T12:03:19.604Z,60.69
2022-12-31T12:04:19.476Z,58.74
2022-12-31T12:05:19.595Z,54.90
2022-12-31T12:06:19.454Z,55.32
2022-12-31T12:07:19.415Z,59.49
2022-12-31T12:08:19.438Z,60.88
2022-12-31T12:09:19.530Z,61.64
2022-12-31T12:10:19.403Z,60.67
2022-12-31T12:11:19.390Z,60.48
2022-12-31T12:12:19.384Z,57.19
2022-12-31T12:13:19.381Z,55.90
2022-12-31T12:14:19.390Z,60.51
2022-12-31T12:15:19.372Z,55.11
2022-12-31T12:16:19.421Z,56.68
2022-12-31T12:17:19.376Z,57.03
2022-12-31T12:18:19.338Z,56.02
2022-12-31T12:19:19.330Z,56.14
2022-12-31T12:20:19.366Z,55.13
2022-12-31T12:21:19.336Z,54.95
2022-12-31T12:22:19.342Z,55.60
2022-12-31T12:23:19.312Z,53.71
2022-12-31T12:24:19.310Z,54.88
2022-12-31T12:25:19.297Z,53.93
2022-12-31T12:26:19.301Z,54.59
2022-12-31T12:27:19.267Z,54.96
2022-12-31T12:28:19.316Z,55.48
2022-12-31T12:29:19.267Z,55.05
2022-12-31T12:30:19.268Z,55.27
2022-12-31T12:31:19.338Z,54.75
2022-12-31T12:32:19.243Z,54.67
2022-12-31T12:33:19.266Z,56.36
2022-12-31T12:34:19.245Z,55.03
2022-12-31T12:35:19.299Z,55.35
2022-12-31T12:36:19.236Z,56.39
2022-12-31T12:37:19.206Z,56.61
2022-12-31T12:38:19.250Z,53.80
2022-12-31T12:39:19.203Z,54.92
2022-12-31T12:40:19.207Z,56.39
2022-12-31T12:41:19.197Z,61.65
2022-12-31T12:42:19.174Z,62.18
2022-12-31T12:43:19.260Z,68.30
2022-12-31T12:44:19.171Z,73.09
2022-12-31T12:45:19.193Z,72.33
2022-12-31T12:46:19.198Z,71.36
2022-12-31T12:47:19.132Z,71.69
2022-12-31T12:48:19.212Z,73.03
2022-12-31T12:49:19.146Z,63.81
2022-12-31T12:50:19.151Z,56.19
2022-12-31T12:51:19.150Z,58.74
2022-12-31T12:52:19.111Z,56.40
2022-12-31T12:53:19.141Z,57.19
2022-12-31T12:54:19.118Z,61.38